sensor_id;sensor_type;location;lat;lon;timestamp;P1;durP1;ratioP1;P2;durP2;ratioP2
8044;SDS011;4065;48.754;9.982;2022-11-24T00:01:07;9.15;;;4.20;;
8044;SDS011;4065;48.754;9.982;2022-11-24T00:04:09;13.35;;;4.25;;
8044;SDS011;4065;48.754;9.982;2022-11-24T00:07:11;13.50;;;4.78;;
8044;SDS011;4065;48.754;9.982;2022-11-24T00:10:13;15.88;;;4.65;;
8044;SDS011;4065;48.754;9.982;2022-11-24T00:13:16;10.60;;;4.22;;
8044;SDS011;4065;48.754;9.982;2022-11-24T00:16:18;13.15;;;5.45;;
8044;SDS011;4065;48.754;9.982;2022-11-24T00:19:21;9.68;;;3.97;;
8044;SDS011;4065;48.754;9.982;2022-11-24T00:22:23;12.93;;;5.03;;
8044;SDS011;4065;48.754;9.982;2022-11-24T00:25:25;16.05;;;5.13;;
8044;SDS011;4065;48.754;9.982;2022-11-24T00:28:28;10.23;;;4.20;;
8044;SDS011;4065;48.754;9.982;2022-11-24T00:31:30;15.18;;;4.88;;
8044;SDS011;4065;48.754;9.982;2022-11-24T00:34:33;12.55;;;4.53;;
8044;SDS011;4065;48.754;9.982;2022-11-24T00:37:35;16.95;;;5.93;;
8044;SDS011;4065;48.754;9.982;2022-11-24T00:40:36;12.80;;;4.40;;
8044;SDS011;4065;48.754;9.982;2022-11-24T00:43:40;12.27;;;4.25;;
8044;SDS011;4065;48.754;9.982;2022-11-24T00:46:41;13.73;;;4.88;;
8044;SDS011;4065;48.754;9.982;2022-11-24T00:49:43;15.02;;;4.90;;
8044;SDS011;4065;48.754;9.982;2022-11-24T00:52:45;15.80;;;5.63;;
8044;SDS011;4065;48.754;9.982;2022-11-24T00:55:47;13.32;;;4.68;;
8044;SDS011;4065;48.754;9.982;2022-11-24T00:58:50;14.93;;;4.45;;
8044;SDS011;4065;48.754;9.982;2022-11-24T01:01:52;13.73;;;4.00;;
8044;SDS011;4065;48.754;9.982;2022-11-24T01:04:54;8.23;;;4.35;;
8044;SDS011;4065;48.754;9.982;2022-11-24T01:07:55;14.38;;;5.05;;
8044;SDS011;4065;48.754;9.982;2022-11-24T01:11:05;15.85;;;4.82;;
8044;SDS011;4065;48.754;9.982;2022-11-24T01:14:11;14.23;;;4.32;;
8044;SDS011;4065;48.754;9.982;2022-11-24T01:17:13;20.25;;;4.70;;
8044;SDS011;4065;48.754;9.982;2022-11-24T01:20:15;13.80;;;4.38;;
8044;SDS011;4065;48.754;9.982;2022-11-24T01:23:16;20.52;;;4.80;;
8044;SDS011;4065;48.754;9.982;2022-11-24T01:26:19;13.60;;;4.28;;
8044;SDS011;4065;48.754;9.982;2022-11-24T01:29:23;13.13;;;4.20;;
8044;SDS011;4065;48.754;9.982;2022-11-24T01:32:26;14.93;;;4.13;;
8044;SDS011;4065;48.754;9.982;2022-11-24T01:35:27;11.02;;;4.55;;
8044;SDS011;4065;48.754;9.982;2022-11-24T01:38:29;11.93;;;4.40;;
8044;SDS011;4065;48.754;9.982;2022-11-24T01:41:32;13.30;;;4.18;;
8044;SDS011;4065;48.754;9.982;2022-11-24T01:44:36;13.35;;;4.00;;
8044;SDS011;4065;48.754;9.982;2022-11-24T01:47:38;12.32;;;4.45;;
8044;SDS011;4065;48.754;9.982;2022-11-24T01:50:41;10.73;;;3.83;;
8044;SDS011;4065;48.754;9.982;2022-11-24T01:53:44;16.42;;;4.55;;
8044;SDS011;4065;48.754;9.982;2022-11-24T01:56:50;7.63;;;3.85;;
8044;SDS011;4065;48.754;9.982;2022-11-24T01:59:56;9.65;;;4.90;;
8044;SDS011;4065;48.754;9.982;2022-11-24T02:03:00;16.83;;;4.53;;
8044;SDS011;4065;48.754;9.982;2022-11-24T02:06:03;14.25;;;4.75;;
8044;SDS011;4065;48.754;9.982;2022-11-24T02:09:10;14.40;;;4.22;;
8044;SDS011;4065;48.754;9.982;2022-11-24T02:12:14;11.75;;;3.92;;
8044;SDS011;4065;48.754;9.982;2022-11-24T02:15:17;10.40;;;4.50;;
8044;SDS011;4065;48.754;9.982;2022-11-24T02:18:19;12.82;;;4.30;;
8044;SDS011;4065;48.754;9.982;2022-11-24T02:21:21;10.27;;;3.83;;
8044;SDS011;4065;48.754;9.982;2022-11-24T02:24:24;10.85;;;3.67;;
8044;SDS011;4065;48.754;9.982;2022-11-24T02:27:30;12.80;;;4.00;;
8044;SDS011;4065;48.754;9.982;2022-11-24T02:30:33;13.25;;;4.13;;
8044;SDS011;4065;48.754;9.982;2022-11-24T02:33:35;13.32;;;3.75;;
8044;SDS011;4065;48.754;9.982;2022-11-24T02:36:37;16.98;;;4.68;;
8044;SDS011;4065;48.754;9.982;2022-11-24T02:39:38;10.70;;;3.80;;
8044;SDS011;4065;48.754;9.982;2022-11-24T02:42:42;10.40;;;4.47;;
8044;SDS011;4065;48.754;9.982;2022-11-24T02:45:45;9.13;;;3.40;;
8044;SDS011;4065;48.754;9.982;2022-11-24T02:48:47;11.90;;;3.53;;
8044;SDS011;4065;48.754;9.982;2022-11-24T02:51:49;11.32;;;3.88;;
8044;SDS011;4065;48.754;9.982;2022-11-24T02:54:51;9.60;;;3.63;;
8044;SDS011;4065;48.754;9.982;2022-11-24T02:57:54;8.23;;;3.33;;
8044;SDS011;4065;48.754;9.982;2022-11-24T03:00:55;10.10;;;3.40;;
8044;SDS011;4065;48.754;9.982;2022-11-24T03:03:58;12.95;;;3.60;;
8044;SDS011;4065;48.754;9.982;2022-11-24T03:07:00;8.32;;;3.65;;
8044;SDS011;4065;48.754;9.982;2022-11-24T03:10:02;8.23;;;3.53;;
8044;SDS011;4065;48.754;9.982;2022-11-24T03:13:05;11.05;;;3.97;;
8044;SDS011;4065;48.754;9.982;2022-11-24T03:16:07;8.02;;;3.30;;
8044;SDS011;4065;48.754;9.982;2022-11-24T03:19:10;14.95;;;3.47;;
8044;SDS011;4065;48.754;9.982;2022-11-24T03:22:12;10.05;;;3.97;;
8044;SDS011;4065;48.754;9.982;2022-11-24T03:25:14;7.72;;;3.83;;
8044;SDS011;4065;48.754;9.982;2022-11-24T03:28:18;9.80;;;3.20;;
8044;SDS011;4065;48.754;9.982;2022-11-24T03:31:20;8.15;;;3.90;;
8044;SDS011;4065;48.754;9.982;2022-11-24T03:34:21;7.95;;;3.15;;
8044;SDS011;4065;48.754;9.982;2022-11-24T03:37:23;11.73;;;3.42;;
8044;SDS011;4065;48.754;9.982;2022-11-24T03:40:25;9.13;;;3.17;;
8044;SDS011;4065;48.754;9.982;2022-11-24T03:43:28;5.93;;;3.70;;
8044;SDS011;4065;48.754;9.982;2022-11-24T03:46:29;9.95;;;3.60;;
8044;SDS011;4065;48.754;9.982;2022-11-24T03:49:31;7.45;;;3.55;;
8044;SDS011;4065;48.754;9.982;2022-11-24T03:52:33;10.73;;;3.95;;
8044;SDS011;4065;48.754;9.982;2022-11-24T03:55:34;15.52;;;4.20;;
8044;SDS011;4065;48.754;9.982;2022-11-24T03:58:37;7.00;;;3.20;;
8044;SDS011;4065;48.754;9.982;2022-11-24T04:01:39;11.85;;;3.88;;
8044;SDS011;4065;48.754;9.982;2022-11-24T04:04:43;7.65;;;3.67;;
8044;SDS011;4065;48.754;9.982;2022-11-24T04:07:49;6.35;;;3.30;;
8044;SDS011;4065;48.754;9.982;2022-11-24T04:10:51;7.20;;;2.90;;
8044;SDS011;4065;48.754;9.982;2022-11-24T04:13:56;10.27;;;3.85;;
8044;SDS011;4065;48.754;9.982;2022-11-24T04:16:56;8.15;;;3.38;;
8044;SDS011;4065;48.754;9.982;2022-11-24T04:19:58;8.68;;;3.33;;
8044;SDS011;4065;48.754;9.982;2022-11-24T04:22:59;11.38;;;3.92;;
8044;SDS011;4065;48.754;9.982;2022-11-24T04:26:01;9.23;;;3.50;;
8044;SDS011;4065;48.754;9.982;2022-11-24T04:29:04;8.38;;;3.45;;
8044;SDS011;4065;48.754;9.982;2022-11-24T04:32:06;14.13;;;4.00;;
8044;SDS011;4065;48.754;9.982;2022-11-24T04:35:08;7.20;;;3.55;;
8044;SDS011;4065;48.754;9.982;2022-11-24T04:38:10;8.07;;;3.85;;
8044;SDS011;4065;48.754;9.982;2022-11-24T04:41:12;14.73;;;3.88;;
8044;SDS011;4065;48.754;9.982;2022-11-24T04:44:15;9.35;;;3.90;;
8044;SDS011;4065;48.754;9.982;2022-11-24T04:47:18;9.85;;;4.22;;
8044;SDS011;4065;48.754;9.982;2022-11-24T04:50:21;8.27;;;3.35;;
8044;SDS011;4065;48.754;9.982;2022-11-24T04:53:23;10.48;;;3.97;;
8044;SDS011;4065;48.754;9.982;2022-11-24T04:56:24;10.18;;;3.72;;
8044;SDS011;4065;48.754;9.982;2022-11-24T04:59:27;10.77;;;3.67;;
8044;SDS011;4065;48.754;9.982;2022-11-24T05:02:29;11.07;;;3.63;;
8044;SDS011;4065;48.754;9.982;2022-11-24T05:05:31;7.13;;;3.58;;
8044;SDS011;4065;48.754;9.982;2022-11-24T05:08:33;7.93;;;3.78;;
8044;SDS011;4065;48.754;9.982;2022-11-24T05:11:34;6.72;;;3.78;;
8044;SDS011;4065;48.754;9.982;2022-11-24T05:14:39;12.07;;;3.92;;
8044;SDS011;4065;48.754;9.982;2022-11-24T05:17:41;12.77;;;3.88;;
8044;SDS011;4065;48.754;9.982;2022-11-24T05:20:42;10.50;;;3.58;;
8044;SDS011;4065;48.754;9.982;2022-11-24T05:23:44;9.77;;;3.97;;
8044;SDS011;4065;48.754;9.982;2022-11-24T05:26:46;8.82;;;3.80;;
8044;SDS011;4065;48.754;9.982;2022-11-24T05:29:49;11.77;;;4.97;;
8044;SDS011;4065;48.754;9.982;2022-11-24T05:32:50;14.68;;;5.45;;
8044;SDS011;4065;48.754;9.982;2022-11-24T05:35:52;12.20;;;3.92;;
8044;SDS011;4065;48.754;9.982;2022-11-24T05:38:54;9.65;;;4.35;;
8044;SDS011;4065;48.754;9.982;2022-11-24T05:41:55;8.98;;;4.07;;
8044;SDS011;4065;48.754;9.982;2022-11-24T05:44:58;8.57;;;4.07;;
8044;SDS011;4065;48.754;9.982;2022-11-24T05:48:02;9.05;;;3.90;;
8044;SDS011;4065;48.754;9.982;2022-11-24T05:51:05;7.75;;;3.63;;
8044;SDS011;4065;48.754;9.982;2022-11-24T05:54:07;9.55;;;3.83;;
8044;SDS011;4065;48.754;9.982;2022-11-24T05:57:08;9.27;;;4.30;;
8044;SDS011;4065;48.754;9.982;2022-11-24T06:00:12;10.80;;;4.60;;
8044;SDS011;4065;48.754;9.982;2022-11-24T06:03:16;8.85;;;4.82;;
8044;SDS011;4065;48.754;9.982;2022-11-24T06:06:18;7.95;;;4.00;;
8044;SDS011;4065;48.754;9.982;2022-11-24T06:09:20;9.05;;;3.90;;
8044;SDS011;4065;48.754;9.982;2022-11-24T06:12:21;9.60;;;4.28;;
8044;SDS011;4065;48.754;9.982;2022-11-24T06:15:24;5.85;;;3.90;;
8044;SDS011;4065;48.754;9.982;2022-11-24T06:18:26;16.98;;;6.00;;
8044;SDS011;4065;48.754;9.982;2022-11-24T06:21:28;8.95;;;4.78;;
8044;SDS011;4065;48.754;9.982;2022-11-24T06:24:30;9.95;;;3.83;;
8044;SDS011;4065;48.754;9.982;2022-11-24T06:27:32;5.40;;;3.60;;
8044;SDS011;4065;48.754;9.982;2022-11-24T06:30:36;9.95;;;4.47;;
8044;SDS011;4065;48.754;9.982;2022-11-24T06:33:37;7.78;;;4.25;;
8044;SDS011;4065;48.754;9.982;2022-11-24T06:36:39;7.93;;;4.28;;
8044;SDS011;4065;48.754;9.982;2022-11-24T06:39:41;8.10;;;4.97;;
8044;SDS011;4065;48.754;9.982;2022-11-24T06:42:48;5.80;;;4.32;;
8044;SDS011;4065;48.754;9.982;2022-11-24T06:45:51;11.05;;;5.05;;
8044;SDS011;4065;48.754;9.982;2022-11-24T06:48:53;13.65;;;5.38;;
8044;SDS011;4065;48.754;9.982;2022-11-24T06:51:55;10.05;;;4.90;;
8044;SDS011;4065;48.754;9.982;2022-11-24T06:54:57;9.63;;;4.72;;
8044;SDS011;4065;48.754;9.982;2022-11-24T06:57:59;10.48;;;6.47;;
8044;SDS011;4065;48.754;9.982;2022-11-24T07:01:02;10.63;;;5.85;;
8044;SDS011;4065;48.754;9.982;2022-11-24T07:04:03;14.77;;;5.25;;
8044;SDS011;4065;48.754;9.982;2022-11-24T07:07:05;8.25;;;4.90;;
8044;SDS011;4065;48.754;9.982;2022-11-24T07:10:07;11.10;;;5.25;;
8044;SDS011;4065;48.754;9.982;2022-11-24T07:13:09;6.78;;;4.75;;
8044;SDS011;4065;48.754;9.982;2022-11-24T07:16:13;11.02;;;5.22;;
8044;SDS011;4065;48.754;9.982;2022-11-24T07:19:15;8.70;;;5.18;;
8044;SDS011;4065;48.754;9.982;2022-11-24T07:22:18;7.53;;;4.55;;
8044;SDS011;4065;48.754;9.982;2022-11-24T07:25:21;9.18;;;5.28;;
8044;SDS011;4065;48.754;9.982;2022-11-24T07:28:23;8.65;;;5.10;;
8044;SDS011;4065;48.754;9.982;2022-11-24T07:31:26;10.30;;;5.20;;
8044;SDS011;4065;48.754;9.982;2022-11-24T07:34:28;8.45;;;5.50;;
8044;SDS011;4065;48.754;9.982;2022-11-24T07:37:31;12.45;;;5.30;;
8044;SDS011;4065;48.754;9.982;2022-11-24T07:40:32;8.32;;;5.38;;
8044;SDS011;4065;48.754;9.982;2022-11-24T07:43:34;8.20;;;5.70;;
8044;SDS011;4065;48.754;9.982;2022-11-24T07:46:40;9.50;;;6.28;;
8044;SDS011;4065;48.754;9.982;2022-11-24T07:49:41;12.85;;;6.18;;
8044;SDS011;4065;48.754;9.982;2022-11-24T07:52:43;10.30;;;5.80;;
8044;SDS011;4065;48.754;9.982;2022-11-24T07:55:51;13.82;;;6.07;;
8044;SDS011;4065;48.754;9.982;2022-11-24T07:58:53;10.52;;;5.65;;
8044;SDS011;4065;48.754;9.982;2022-11-24T08:02:06;10.15;;;5.07;;
8044;SDS011;4065;48.754;9.982;2022-11-24T08:05:10;12.50;;;5.57;;
8044;SDS011;4065;48.754;9.982;2022-11-24T08:08:12;16.40;;;5.82;;
8044;SDS011;4065;48.754;9.982;2022-11-24T08:11:15;14.35;;;5.97;;
8044;SDS011;4065;48.754;9.982;2022-11-24T08:14:20;12.70;;;5.57;;
8044;SDS011;4065;48.754;9.982;2022-11-24T08:17:23;11.85;;;5.07;;
8044;SDS011;4065;48.754;9.982;2022-11-24T08:20:25;11.93;;;4.93;;
8044;SDS011;4065;48.754;9.982;2022-11-24T08:23:27;20.17;;;6.30;;
8044;SDS011;4065;48.754;9.982;2022-11-24T08:26:30;9.82;;;5.32;;
8044;SDS011;4065;48.754;9.982;2022-11-24T08:29:32;13.85;;;5.88;;
8044;SDS011;4065;48.754;9.982;2022-11-24T08:32:36;13.73;;;5.63;;
8044;SDS011;4065;48.754;9.982;2022-11-24T08:35:38;11.57;;;4.88;;
8044;SDS011;4065;48.754;9.982;2022-11-24T08:38:40;14.55;;;6.30;;
8044;SDS011;4065;48.754;9.982;2022-11-24T08:41:43;11.98;;;6.90;;
8044;SDS011;4065;48.754;9.982;2022-11-24T08:44:45;5.20;;;3.50;;
8044;SDS011;4065;48.754;9.982;2022-11-24T08:47:51;10.07;;;3.78;;
8044;SDS011;4065;48.754;9.982;2022-11-24T08:50:53;8.55;;;3.85;;
8044;SDS011;4065;48.754;9.982;2022-11-24T08:53:59;7.85;;;3.85;;
8044;SDS011;4065;48.754;9.982;2022-11-24T08:57:02;5.95;;;3.92;;
8044;SDS011;4065;48.754;9.982;2022-11-24T09:00:05;9.63;;;5.40;;
8044;SDS011;4065;48.754;9.982;2022-11-24T09:03:10;9.85;;;4.22;;
8044;SDS011;4065;48.754;9.982;2022-11-24T09:06:12;8.55;;;4.00;;
8044;SDS011;4065;48.754;9.982;2022-11-24T09:09:15;8.70;;;4.55;;
8044;SDS011;4065;48.754;9.982;2022-11-24T09:12:18;9.45;;;5.75;;
8044;SDS011;4065;48.754;9.982;2022-11-24T09:15:22;11.13;;;10.02;;
8044;SDS011;4065;48.754;9.982;2022-11-24T09:18:25;10.27;;;5.88;;
8044;SDS011;4065;48.754;9.982;2022-11-24T09:21:28;36.85;;;27.13;;
8044;SDS011;4065;48.754;9.982;2022-11-24T09:24:31;13.57;;;7.97;;
8044;SDS011;4065;48.754;9.982;2022-11-24T09:27:33;10.07;;;5.70;;
8044;SDS011;4065;48.754;9.982;2022-11-24T09:30:39;6.53;;;4.50;;
8044;SDS011;4065;48.754;9.982;2022-11-24T09:33:49;8.02;;;4.28;;
8044;SDS011;4065;48.754;9.982;2022-11-24T09:36:52;6.22;;;4.05;;
8044;SDS011;4065;48.754;9.982;2022-11-24T09:39:58;8.52;;;4.15;;
8044;SDS011;4065;48.754;9.982;2022-11-24T09:43:00;10.90;;;4.65;;
8044;SDS011;4065;48.754;9.982;2022-11-24T09:46:12;8.10;;;4.68;;
8044;SDS011;4065;48.754;9.982;2022-11-24T09:49:21;8.63;;;5.30;;
8044;SDS011;4065;48.754;9.982;2022-11-24T09:52:34;7.30;;;4.00;;
8044;SDS011;4065;48.754;9.982;2022-11-24T09:55:42;6.53;;;3.75;;
8044;SDS011;4065;48.754;9.982;2022-11-24T09:58:46;9.52;;;5.35;;
8044;SDS011;4065;48.754;9.982;2022-11-24T10:01:50;9.30;;;4.10;;
8044;SDS011;4065;48.754;9.982;2022-11-24T10:04:56;12.15;;;6.70;;
8044;SDS011;4065;48.754;9.982;2022-11-24T10:08:02;11.70;;;6.30;;
8044;SDS011;4065;48.754;9.982;2022-11-24T10:11:16;7.70;;;4.85;;
8044;SDS011;4065;48.754;9.982;2022-11-24T10:14:29;8.50;;;4.97;;
8044;SDS011;4065;48.754;9.982;2022-11-24T10:17:52;9.23;;;3.88;;
8044;SDS011;4065;48.754;9.982;2022-11-24T10:21:12;6.63;;;3.40;;
8044;SDS011;4065;48.754;9.982;2022-11-24T10:28:06;5.57;;;3.83;;
8044;SDS011;4065;48.754;9.982;2022-11-24T10:31:15;6.45;;;4.18;;
8044;SDS011;4065;48.754;9.982;2022-11-24T10:34:24;5.55;;;3.80;;
8044;SDS011;4065;48.754;9.982;2022-11-24T10:37:34;6.35;;;4.97;;
8044;SDS011;4065;48.754;9.982;2022-11-24T10:40:40;7.60;;;4.90;;
8044;SDS011;4065;48.754;9.982;2022-11-24T10:43:45;13.10;;;7.78;;
8044;SDS011;4065;48.754;9.982;2022-11-24T10:46:47;11.05;;;5.97;;
8044;SDS011;4065;48.754;9.982;2022-11-24T10:49:54;10.80;;;6.25;;
8044;SDS011;4065;48.754;9.982;2022-11-24T10:53:03;7.60;;;4.45;;
8044;SDS011;4065;48.754;9.982;2022-11-24T10:56:16;8.43;;;5.20;;
8044;SDS011;4065;48.754;9.982;2022-11-24T10:59:28;6.82;;;4.68;;
8044;SDS011;4065;48.754;9.982;2022-11-24T11:02:34;6.30;;;3.30;;
8044;SDS011;4065;48.754;9.982;2022-11-24T11:05:37;3.22;;;2.97;;
8044;SDS011;4065;48.754;9.982;2022-11-24T11:08:43;4.97;;;3.65;;
8044;SDS011;4065;48.754;9.982;2022-11-24T11:11:46;4.35;;;3.53;;
8044;SDS011;4065;48.754;9.982;2022-11-24T11:14:49;2.83;;;2.50;;
8044;SDS011;4065;48.754;9.982;2022-11-24T11:17:55;3.38;;;2.90;;
8044;SDS011;4065;48.754;9.982;2022-11-24T11:21:02;4.25;;;3.20;;
8044;SDS011;4065;48.754;9.982;2022-11-24T11:24:15;4.13;;;2.95;;
8044;SDS011;4065;48.754;9.982;2022-11-24T11:27:25;2.88;;;2.58;;
8044;SDS011;4065;48.754;9.982;2022-11-24T11:30:29;3.78;;;2.42;;
8044;SDS011;4065;48.754;9.982;2022-11-24T11:33:34;6.50;;;2.65;;
8044;SDS011;4065;48.754;9.982;2022-11-24T11:36:55;3.40;;;2.42;;
8044;SDS011;4065;48.754;9.982;2022-11-24T11:40:00;3.58;;;2.55;;
8044;SDS011;4065;48.754;9.982;2022-11-24T11:43:09;4.47;;;2.60;;
8044;SDS011;4065;48.754;9.982;2022-11-24T11:46:19;3.72;;;2.60;;
8044;SDS011;4065;48.754;9.982;2022-11-24T11:49:24;5.18;;;2.78;;
8044;SDS011;4065;48.754;9.982;2022-11-24T11:52:31;7.10;;;2.72;;
8044;SDS011;4065;48.754;9.982;2022-11-24T11:55:54;8.57;;;2.90;;
8044;SDS011;4065;48.754;9.982;2022-11-24T11:59:14;6.30;;;3.28;;
8044;SDS011;4065;48.754;9.982;2022-11-24T12:02:35;4.35;;;2.67;;
8044;SDS011;4065;48.754;9.982;2022-11-24T12:05:58;4.25;;;3.10;;
8044;SDS011;4065;48.754;9.982;2022-11-24T12:09:10;5.40;;;3.67;;
8044;SDS011;4065;48.754;9.982;2022-11-24T12:12:29;6.85;;;3.20;;
8044;SDS011;4065;48.754;9.982;2022-11-24T12:15:53;7.55;;;3.90;;
8044;SDS011;4065;48.754;9.982;2022-11-24T12:22:22;4.35;;;3.05;;
8044;SDS011;4065;48.754;9.982;2022-11-24T12:25:27;6.35;;;3.50;;
8044;SDS011;4065;48.754;9.982;2022-11-24T12:28:41;8.10;;;3.80;;
8044;SDS011;4065;48.754;9.982;2022-11-24T12:31:50;7.45;;;3.90;;
8044;SDS011;4065;48.754;9.982;2022-11-24T12:34:58;5.22;;;3.00;;
8044;SDS011;4065;48.754;9.982;2022-11-24T12:38:10;5.15;;;3.58;;
8044;SDS011;4065;48.754;9.982;2022-11-24T12:41:24;4.38;;;3.10;;
8044;SDS011;4065;48.754;9.982;2022-11-24T12:44:37;7.57;;;2.97;;
8044;SDS011;4065;48.754;9.982;2022-11-24T12:51:15;9.65;;;3.78;;
8044;SDS011;4065;48.754;9.982;2022-11-24T12:54:19;9.18;;;3.47;;
8044;SDS011;4065;48.754;9.982;2022-11-24T12:57:24;5.90;;;3.67;;
8044;SDS011;4065;48.754;9.982;2022-11-24T13:00:33;6.43;;;3.60;;
8044;SDS011;4065;48.754;9.982;2022-11-24T13:03:39;15.80;;;9.02;;
8044;SDS011;4065;48.754;9.982;2022-11-24T13:06:49;22.38;;;14.63;;
8044;SDS011;4065;48.754;9.982;2022-11-24T13:13:53;6.47;;;3.90;;
8044;SDS011;4065;48.754;9.982;2022-11-24T13:16:59;7.45;;;4.03;;
8044;SDS011;4065;48.754;9.982;2022-11-24T13:20:14;6.70;;;3.78;;
8044;SDS011;4065;48.754;9.982;2022-11-24T13:23:24;5.38;;;3.75;;
8044;SDS011;4065;48.754;9.982;2022-11-24T13:26:31;7.25;;;3.78;;
8044;SDS011;4065;48.754;9.982;2022-11-24T13:29:46;5.22;;;3.15;;
8044;SDS011;4065;48.754;9.982;2022-11-24T13:32:58;6.63;;;3.15;;
8044;SDS011;4065;48.754;9.982;2022-11-24T13:39:45;4.10;;;3.13;;
8044;SDS011;4065;48.754;9.982;2022-11-24T13:50:00;6.03;;;2.90;;
8044;SDS011;4065;48.754;9.982;2022-11-24T13:53:05;8.15;;;2.55;;
8044;SDS011;4065;48.754;9.982;2022-11-24T13:56:18;7.95;;;2.65;;
8044;SDS011;4065;48.754;9.982;2022-11-24T13:59:22;9.23;;;3.05;;
8044;SDS011;4065;48.754;9.982;2022-11-24T14:02:34;6.15;;;3.53;;
8044;SDS011;4065;48.754;9.982;2022-11-24T14:05:38;8.10;;;4.50;;
8044;SDS011;4065;48.754;9.982;2022-11-24T14:08:40;9.65;;;5.55;;
8044;SDS011;4065;48.754;9.982;2022-11-24T14:11:45;8.73;;;5.25;;
8044;SDS011;4065;48.754;9.982;2022-11-24T14:15:13;6.57;;;3.10;;
8044;SDS011;4065;48.754;9.982;2022-11-24T14:18:21;4.32;;;2.90;;
8044;SDS011;4065;48.754;9.982;2022-11-24T14:21:25;7.80;;;3.22;;
8044;SDS011;4065;48.754;9.982;2022-11-24T14:24:29;6.28;;;3.60;;
8044;SDS011;4065;48.754;9.982;2022-11-24T14:27:33;7.60;;;4.05;;
8044;SDS011;4065;48.754;9.982;2022-11-24T14:30:36;6.97;;;3.55;;
8044;SDS011;4065;48.754;9.982;2022-11-24T14:33:37;11.27;;;3.78;;
8044;SDS011;4065;48.754;9.982;2022-11-24T14:36:44;10.70;;;4.50;;
8044;SDS011;4065;48.754;9.982;2022-11-24T14:39:46;12.13;;;6.20;;
8044;SDS011;4065;48.754;9.982;2022-11-24T14:42:48;39.85;;;28.00;;
8044;SDS011;4065;48.754;9.982;2022-11-24T14:45:51;14.55;;;10.73;;
8044;SDS011;4065;48.754;9.982;2022-11-24T14:48:53;11.82;;;6.10;;
8044;SDS011;4065;48.754;9.982;2022-11-24T14:51:57;10.32;;;6.38;;
8044;SDS011;4065;48.754;9.982;2022-11-24T14:55:01;11.35;;;5.65;;
8044;SDS011;4065;48.754;9.982;2022-11-24T14:58:17;16.00;;;5.25;;
8044;SDS011;4065;48.754;9.982;2022-11-24T15:01:21;6.38;;;4.13;;
8044;SDS011;4065;48.754;9.982;2022-11-24T15:04:29;8.63;;;4.32;;
8044;SDS011;4065;48.754;9.982;2022-11-24T15:07:33;9.52;;;4.97;;
8044;SDS011;4065;48.754;9.982;2022-11-24T15:10:37;9.38;;;5.93;;
8044;SDS011;4065;48.754;9.982;2022-11-24T15:13:50;17.23;;;9.43;;
8044;SDS011;4065;48.754;9.982;2022-11-24T15:16:54;28.60;;;16.13;;
8044;SDS011;4065;48.754;9.982;2022-11-24T15:19:59;25.13;;;14.63;;
8044;SDS011;4065;48.754;9.982;2022-11-24T15:23:23;17.63;;;11.05;;
8044;SDS011;4065;48.754;9.982;2022-11-24T15:26:38;13.18;;;8.18;;
8044;SDS011;4065;48.754;9.982;2022-11-24T15:29:40;11.23;;;7.20;;
8044;SDS011;4065;48.754;9.982;2022-11-24T15:32:47;9.00;;;6.00;;
8044;SDS011;4065;48.754;9.982;2022-11-24T15:35:50;13.43;;;7.00;;
8044;SDS011;4065;48.754;9.982;2022-11-24T15:39:12;7.18;;;6.03;;
8044;SDS011;4065;48.754;9.982;2022-11-24T15:42:23;10.60;;;6.03;;
8044;SDS011;4065;48.754;9.982;2022-11-24T15:45:25;8.05;;;5.38;;
8044;SDS011;4065;48.754;9.982;2022-11-24T15:48:27;19.40;;;11.48;;
8044;SDS011;4065;48.754;9.982;2022-11-24T15:51:33;25.00;;;11.52;;
8044;SDS011;4065;48.754;9.982;2022-11-24T15:54:40;24.50;;;12.93;;
8044;SDS011;4065;48.754;9.982;2022-11-24T15:57:42;18.50;;;7.88;;
8044;SDS011;4065;48.754;9.982;2022-11-24T16:00:45;11.98;;;6.82;;
8044;SDS011;4065;48.754;9.982;2022-11-24T16:03:46;9.50;;;5.75;;
8044;SDS011;4065;48.754;9.982;2022-11-24T16:06:48;12.38;;;5.07;;
8044;SDS011;4065;48.754;9.982;2022-11-24T16:09:51;10.80;;;5.13;;
8044;SDS011;4065;48.754;9.982;2022-11-24T16:12:52;8.20;;;4.88;;
8044;SDS011;4065;48.754;9.982;2022-11-24T16:15:54;11.45;;;6.85;;
8044;SDS011;4065;48.754;9.982;2022-11-24T16:18:59;11.18;;;5.85;;
8044;SDS011;4065;48.754;9.982;2022-11-24T16:22:00;10.85;;;6.63;;
8044;SDS011;4065;48.754;9.982;2022-11-24T16:25:03;13.60;;;6.15;;
8044;SDS011;4065;48.754;9.982;2022-11-24T16:28:06;11.73;;;6.72;;
8044;SDS011;4065;48.754;9.982;2022-11-24T16:31:07;14.88;;;12.68;;
8044;SDS011;4065;48.754;9.982;2022-11-24T16:34:14;13.70;;;8.68;;
8044;SDS011;4065;48.754;9.982;2022-11-24T16:37:16;15.60;;;7.13;;
8044;SDS011;4065;48.754;9.982;2022-11-24T16:40:21;18.15;;;8.48;;
8044;SDS011;4065;48.754;9.982;2022-11-24T16:43:23;18.77;;;9.05;;
8044;SDS011;4065;48.754;9.982;2022-11-24T16:46:26;20.58;;;12.85;;
8044;SDS011;4065;48.754;9.982;2022-11-24T16:49:27;15.63;;;9.15;;
8044;SDS011;4065;48.754;9.982;2022-11-24T16:52:29;15.90;;;9.15;;
8044;SDS011;4065;48.754;9.982;2022-11-24T16:55:32;9.32;;;6.50;;
8044;SDS011;4065;48.754;9.982;2022-11-24T16:58:37;12.35;;;6.80;;
8044;SDS011;4065;48.754;9.982;2022-11-24T17:01:39;10.93;;;6.35;;
8044;SDS011;4065;48.754;9.982;2022-11-24T17:04:42;13.48;;;7.80;;
8044;SDS011;4065;48.754;9.982;2022-11-24T17:07:44;15.05;;;6.68;;
8044;SDS011;4065;48.754;9.982;2022-11-24T17:10:47;11.80;;;6.45;;
8044;SDS011;4065;48.754;9.982;2022-11-24T17:13:49;14.32;;;5.80;;
8044;SDS011;4065;48.754;9.982;2022-11-24T17:16:52;11.05;;;6.97;;
8044;SDS011;4065;48.754;9.982;2022-11-24T17:19:54;12.30;;;8.50;;
8044;SDS011;4065;48.754;9.982;2022-11-24T17:22:56;20.05;;;11.80;;
8044;SDS011;4065;48.754;9.982;2022-11-24T17:26:01;16.73;;;10.88;;
8044;SDS011;4065;48.754;9.982;2022-11-24T17:29:03;13.45;;;8.90;;
8044;SDS011;4065;48.754;9.982;2022-11-24T17:32:05;17.40;;;12.73;;
8044;SDS011;4065;48.754;9.982;2022-11-24T17:35:07;24.27;;;17.45;;
8044;SDS011;4065;48.754;9.982;2022-11-24T17:38:09;15.48;;;11.55;;
8044;SDS011;4065;48.754;9.982;2022-11-24T17:41:12;16.95;;;11.88;;
8044;SDS011;4065;48.754;9.982;2022-11-24T17:44:13;18.83;;;11.70;;
8044;SDS011;4065;48.754;9.982;2022-11-24T17:47:17;15.98;;;10.23;;
8044;SDS011;4065;48.754;9.982;2022-11-24T17:50:19;17.00;;;9.93;;
8044;SDS011;4065;48.754;9.982;2022-11-24T17:53:20;20.67;;;11.18;;
8044;SDS011;4065;48.754;9.982;2022-11-24T17:56:24;19.75;;;13.50;;
8044;SDS011;4065;48.754;9.982;2022-11-24T17:59:27;21.10;;;13.55;;
8044;SDS011;4065;48.754;9.982;2022-11-24T18:02:28;32.03;;;17.23;;
8044;SDS011;4065;48.754;9.982;2022-11-24T18:05:32;36.80;;;22.60;;
8044;SDS011;4065;48.754;9.982;2022-11-24T18:08:36;48.85;;;30.17;;
8044;SDS011;4065;48.754;9.982;2022-11-24T18:11:43;42.83;;;25.33;;
8044;SDS011;4065;48.754;9.982;2022-11-24T18:14:45;45.97;;;23.02;;
8044;SDS011;4065;48.754;9.982;2022-11-24T18:17:47;43.63;;;25.38;;
8044;SDS011;4065;48.754;9.982;2022-11-24T18:20:52;46.42;;;27.23;;
8044;SDS011;4065;48.754;9.982;2022-11-24T18:23:54;34.88;;;19.52;;
8044;SDS011;4065;48.754;9.982;2022-11-24T18:26:58;28.17;;;16.65;;
8044;SDS011;4065;48.754;9.982;2022-11-24T18:29:59;20.55;;;15.55;;
8044;SDS011;4065;48.754;9.982;2022-11-24T18:33:01;30.77;;;18.30;;
8044;SDS011;4065;48.754;9.982;2022-11-24T18:36:03;23.23;;;13.40;;
8044;SDS011;4065;48.754;9.982;2022-11-24T18:39:06;26.15;;;15.55;;
8044;SDS011;4065;48.754;9.982;2022-11-24T18:42:09;22.08;;;13.18;;
8044;SDS011;4065;48.754;9.982;2022-11-24T18:45:11;25.13;;;11.13;;
8044;SDS011;4065;48.754;9.982;2022-11-24T18:48:13;12.45;;;8.50;;
8044;SDS011;4065;48.754;9.982;2022-11-24T18:51:15;13.48;;;9.80;;
8044;SDS011;4065;48.754;9.982;2022-11-24T18:54:22;25.23;;;15.27;;
8044;SDS011;4065;48.754;9.982;2022-11-24T18:57:25;21.15;;;13.63;;
8044;SDS011;4065;48.754;9.982;2022-11-24T19:00:27;14.93;;;9.82;;
8044;SDS011;4065;48.754;9.982;2022-11-24T19:03:28;17.27;;;11.90;;
8044;SDS011;4065;48.754;9.982;2022-11-24T19:06:33;18.80;;;12.32;;
8044;SDS011;4065;48.754;9.982;2022-11-24T19:09:36;17.65;;;11.75;;
8044;SDS011;4065;48.754;9.982;2022-11-24T19:12:39;23.08;;;12.10;;
8044;SDS011;4065;48.754;9.982;2022-11-24T19:15:41;17.40;;;13.80;;
8044;SDS011;4065;48.754;9.982;2022-11-24T19:18:42;23.45;;;13.95;;